Lagoon Airstrip


Codes: AYLQ/
Name: Lagoon Airstrip
City: Lagoon
Country: Papua New Guinea
Elevation: 100 ft.

Photos at Lagoon Airstrip


   Photos courtesy of SpottingLog. You can add your own sightings and photos by signing up for a free trial today.



No photos found.

Weather at Lagoon Airstrip


Time (UTC)DescriptionTempratureWindCloud coverageVisibilityPressureHumidity
16-Jun-2024 03:00Overcast Clouds25°C7 mph, SE100%10000m1014hPa73%
16-Jun-2024 06:00Overcast Clouds25°C4 mph, S100%10000m1013hPa73%
16-Jun-2024 09:00Broken Clouds22°C2 mph, SE79%10000m1013hPa85%
16-Jun-2024 12:00Scattered Clouds21°C2 mph, SE44%10000m1014hPa88%
16-Jun-2024 15:00Scattered Clouds20°C2 mph, SE29%10000m1013hPa91%
16-Jun-2024 18:00Scattered Clouds20°C2 mph, SE44%10000m1013hPa93%
16-Jun-2024 21:00Clear Sky20°C2 mph, SE0%10000m1014hPa91%
17-Jun-2024 00:00Clear Sky27°C7 mph, SE1%10000m1015hPa64%
17-Jun-2024 03:00Few Clouds29°C7 mph, SE24%10000m1012hPa54%
17-Jun-2024 06:00Few Clouds27°C7 mph, SE14%10000m1011hPa60%
17-Jun-2024 09:00Scattered Clouds22°C4 mph, SE25%10000m1012hPa79%
17-Jun-2024 12:00Few Clouds21°C2 mph, SE24%10000m1014hPa84%
17-Jun-2024 15:00Clear Sky20°C2 mph, SE0%10000m1014hPa88%
17-Jun-2024 18:00Clear Sky20°C2 mph, E0%10000m1013hPa90%
17-Jun-2024 21:00Clear Sky20°C2 mph, SE0%10000m1013hPa90%
18-Jun-2024 00:00Clear Sky27°C7 mph, SE0%10000m1014hPa58%
18-Jun-2024 03:00Clear Sky29°C7 mph, SE0%10000m1012hPa50%
18-Jun-2024 06:00Clear Sky27°C9 mph, SE1%10000m1010hPa57%
18-Jun-2024 09:00Few Clouds23°C4 mph, SE22%10000m1012hPa71%
18-Jun-2024 12:00Broken Clouds23°C4 mph, SE51%10000m1014hPa67%
18-Jun-2024 15:00Overcast Clouds23°C4 mph, SE98%10000m1013hPa76%
18-Jun-2024 18:00Overcast Clouds23°C4 mph, SE98%10000m1012hPa77%
18-Jun-2024 21:00Overcast Clouds23°C2 mph, SE100%10000m1013hPa74%
19-Jun-2024 00:00Overcast Clouds25°C7 mph, SE99%10000m1014hPa67%
19-Jun-2024 03:00Overcast Clouds28°C7 mph, SE100%10000m1012hPa56%
19-Jun-2024 06:00Overcast Clouds26°C7 mph, SE100%10000m1010hPa65%
19-Jun-2024 09:00Overcast Clouds22°C2 mph, SE89%10000m1011hPa82%
19-Jun-2024 12:00Overcast Clouds23°C2 mph, SE85%10000m1013hPa79%
19-Jun-2024 15:00Overcast Clouds23°C2 mph, SE100%10000m1012hPa86%
19-Jun-2024 18:00Light Rain22°C4 mph, SE100%10000m1011hPa92%
19-Jun-2024 21:00Light Rain23°C4 mph, SE100%10000m1012hPa90%
20-Jun-2024 00:00Light Rain24°C7 mph, SE100%10000m1013hPa84%
20-Jun-2024 03:00Light Rain24°C7 mph, SE100%10000m1012hPa82%
20-Jun-2024 06:00Light Rain24°C7 mph, SE100%10000m1010hPa84%
20-Jun-2024 09:00Light Rain23°C4 mph, SE100%10000m1012hPa85%
20-Jun-2024 12:00Light Rain23°C4 mph, SE100%10000m1014hPa88%
20-Jun-2024 15:00Light Rain23°C4 mph, SE100%10000m1013hPa92%
20-Jun-2024 18:00Light Rain22°C4 mph, SE100%10000m1012hPa93%
20-Jun-2024 21:00Overcast Clouds22°C2 mph, SE97%10000m1013hPa93%
21-Jun-2024 00:00Light Rain26°C7 mph, SE98%10000m1013hPa80%